Capt. Harry — WDC3690 — position and weather

sailwx.info

Track history (hours):
 
Tides and Currents Weather Stations Pressure Air Temp Water Temp Dewpoint Dewpoint Depression Visibility Wind Speed Wind Dir Waves Ship Positions

Capt. Harry

Owner: Wilmington Tug, Inc., New Castle, DE. More information available from US FCC via Universal Licensing System and Coast Guard Vessel Documentation Center.

Last reported at 2017-Jul-20 18:31 UTC. Time now 2017-Jul-20 18:32 UTC.
Position N 39°53' W 075°11'.

Length 24 m; draft 4 m.

Type: Tug. MMSI: 367012530.

Date/timePositionNaut miles runAvg speedWind from/ knotsBaromVisibWave heightAir tempDewpointWater temp
2017-Jul-20 18:31N 39°53' W 075°11'0 0.0
2017-Jul-20 18:00N 39°53' W 075°11'0 0.0
2017-Jul-20 17:31N 39°53' W 075°11'0 0.0
2017-Jul-20 17:01N 39°53' W 075°11'0 0.0
2017-Jul-20 16:30N 39°53' W 075°11'0 0.0
2017-Jul-20 16:01N 39°53' W 075°11'0 0.0
2017-Jul-20 15:30N 39°53' W 075°11'0 0.2
2017-Jul-20 15:00N 39°53' W 075°11'1211.6
2017-Jul-20 14:00N 39°48' W 075°25'0 0.1
2017-Jul-20 13:30N 39°48' W 075°25'0 0.9
2017-Jul-20 13:00N 39°48' W 075°25'1 1.9
2017-Jul-20 12:30N 39°48' W 075°26'1 1.3
2017-Jul-20 12:00N 39°48' W 075°26'0 0.2
2017-Jul-20 11:30N 39°48' W 075°26'0 0.0
2017-Jul-20 11:00N 39°48' W 075°26'0 0.0
2017-Jul-20 10:30N 39°48' W 075°26'0 0.0
2017-Jul-20 10:00N 39°48' W 075°26'0 0.0
2017-Jul-20 09:30N 39°48' W 075°26'0 0.0
2017-Jul-20 09:00N 39°48' W 075°26'0 1.0
2017-Jul-20 08:30N 39°48' W 075°25'0 0.0
2017-Jul-20 08:00N 39°48' W 075°25'0 0.3
2017-Jul-20 07:30N 39°48' W 075°25'0 0.0
2017-Jul-20 07:00N 39°48' W 075°25'0 0.4
2017-Jul-20 06:30N 39°48' W 075°25'1 2.7
2017-Jul-20 06:01N 39°49' W 075°24'713.9
2017-Jul-20 05:30N 39°51' W 075°15'2 3.5
2017-Jul-20 05:00N 39°52' W 075°13'0 0.0
2017-Jul-20 04:30N 39°52' W 075°13'1 2.6
2017-Jul-20 04:00N 39°51' W 075°15'611.4
2017-Jul-20 03:30N 39°50' W 075°22'611.0
2017-Jul-20 03:00N 39°47' W 075°28'4 9.0
2017-Jul-20 02:30N 39°43' W 075°31'0 0.0
2017-Jul-20 02:01N 39°43' W 075°31'0 0.0
2017-Jul-20 01:31N 39°43' W 075°31'0 0.0
2017-Jul-20 01:01N 39°43' W 075°31'0 0.0
2017-Jul-20 00:30N 39°43' W 075°31'0 0.0
2017-Jul-20 00:00N 39°43' W 075°31'0 0.0
2017-Jul-19 23:30N 39°43' W 075°31'0 0.0
2017-Jul-19 23:00N 39°43' W 075°31'0 0.0
2017-Jul-19 22:30N 39°43' W 075°31'0 0.0
2017-Jul-19 22:00N 39°43' W 075°31'0 0.0
2017-Jul-19 21:30N 39°43' W 075°31'0 0.0
2017-Jul-19 21:00N 39°43' W 075°31'0 0.0
2017-Jul-19 20:30N 39°43' W 075°31'0 0.0
2017-Jul-19 20:00N 39°43' W 075°31'0 0.0
2017-Jul-19 19:30N 39°43' W 075°31'0 0.0
2017-Jul-19 19:00N 39°43' W 075°31'0 0.0
2017-Jul-19 18:30N 39°43' W 075°31'0 0.1
2017-Jul-19 18:00N 39°43' W 075°31'0 0.1
2017-Jul-19 17:30N 39°43' W 075°31'0 0.0
2017-Jul-19 17:00N 39°43' W 075°31'0 0.0
2017-Jul-19 16:30N 39°43' W 075°31'0 0.0
2017-Jul-19 16:00N 39°43' W 075°31'0 0.0
2017-Jul-19 15:30N 39°43' W 075°31'0 0.0
2017-Jul-19 15:00N 39°43' W 075°31'0 0.0
2017-Jul-19 14:30N 39°43' W 075°31'0 0.0
2017-Jul-19 14:00N 39°43' W 075°31'0 0.0
2017-Jul-19 13:30N 39°43' W 075°31'0 0.0
2017-Jul-19 13:00N 39°43' W 075°31'0 0.0
2017-Jul-19 12:30N 39°43' W 075°31'0 0.0
2017-Jul-19 12:01N 39°43' W 075°31'0 0.0
2017-Jul-19 11:31N 39°43' W 075°31'0 0.0
2017-Jul-19 11:00N 39°43' W 075°31'0 0.0
2017-Jul-19 10:31N 39°43' W 075°31'0 0.0
2017-Jul-19 10:00N 39°43' W 075°31'0 0.0
2017-Jul-19 09:31N 39°43' W 075°31'0 0.0
2017-Jul-19 09:01N 39°43' W 075°31'0 0.0
2017-Jul-19 08:30N 39°43' W 075°31'0 0.0
2017-Jul-19 08:00N 39°43' W 075°31'0 0.0
2017-Jul-19 07:31N 39°43' W 075°31'0 0.0
2017-Jul-19 07:00N 39°43' W 075°31'0 0.0
2017-Jul-19 06:30N 39°43' W 075°31'0 0.0
2017-Jul-19 06:00N 39°43' W 075°31'0 0.0
2017-Jul-19 05:19N 39°43' W 075°31'0 0.0
2017-Jul-19 05:00N 39°43' W 075°31'1 2.7
2017-Jul-19 04:31N 39°44' W 075°30'713.3
2017-Jul-19 04:00N 39°49' W 075°24'612.8
2017-Jul-19 03:30N 39°51' W 075°16'4 8.6
2017-Jul-19 03:00N 39°53' W 075°11'0 0.0
2017-Jul-19 02:31N 39°53' W 075°11'0 0.0
2017-Jul-19 02:01N 39°53' W 075°11'0 0.0
2017-Jul-19 01:30N 39°53' W 075°11'2 3.8
2017-Jul-19 01:00N 39°52' W 075°13'0 0.0
2017-Jul-19 00:30N 39°52' W 075°13'0 0.0
2017-Jul-19 00:00N 39°52' W 075°13'0 0.2
2017-Jul-18 23:30N 39°52' W 075°13'2 4.4
2017-Jul-18 23:00N 39°51' W 075°16'2 4.4
2017-Jul-18 22:30N 39°52' W 075°13'2 3.4
2017-Jul-18 22:00N 39°53' W 075°11'0 0.4
2017-Jul-18 21:30N 39°53' W 075°11'0 0.0
2017-Jul-18 21:00N 39°53' W 075°11'0 0.0
2017-Jul-18 20:30N 39°53' W 075°11'0 0.0
2017-Jul-18 20:00N 39°53' W 075°11'0 0.0
2017-Jul-18 19:30N 39°53' W 075°11'0 0.0
2017-Jul-18 19:00N 39°53' W 075°11'0 0.0
2017-Jul-18 18:31N 39°53' W 075°11'0 0.0
2017-Jul-18 18:01N 39°53' W 075°11'0 0.0
2017-Jul-18 17:30N 39°53' W 075°11'0 0.0
2017-Jul-18 17:01N 39°53' W 075°11'0 0.0
2017-Jul-18 16:30N 39°53' W 075°11'1 1.0
2017-Jul-18 16:01N 39°53' W 075°12'2 3.7
2017-Jul-18 15:31N 39°55' W 075°13'1 2.7
2017-Jul-18 15:00N 39°54' W 075°12'1 0.7
2017-Jul-18 14:01N 39°53' W 075°11'0 0.0
2017-Jul-18 13:30N 39°53' W 075°11'0 0.0
2017-Jul-18 13:00N 39°53' W 075°11'0 0.7
2017-Jul-18 12:30N 39°53' W 075°11'2 4.6
2017-Jul-18 12:00N 39°54' W 075°08'0 0.4
2017-Jul-18 11:30N 39°54' W 075°08'0 0.6
2017-Jul-18 11:00N 39°54' W 075°08'0 0.2
2017-Jul-18 10:30N 39°54' W 075°08'2 3.4
2017-Jul-18 10:00N 39°53' W 075°10'1 2.9
2017-Jul-18 09:30N 39°54' W 075°08'0 0.1
2017-Jul-18 09:00N 39°54' W 075°08'2 4.6
2017-Jul-18 08:31N 39°53' W 075°11'0 0.0
2017-Jul-18 08:01N 39°53' W 075°11'0 0.0
2017-Jul-18 07:30N 39°53' W 075°11'0 0.0
2017-Jul-18 07:00N 39°53' W 075°11'0 0.0
2017-Jul-18 06:30N 39°53' W 075°11'0 0.0
2017-Jul-18 06:00N 39°53' W 075°11'0 0.0
2017-Jul-18 05:30N 39°53' W 075°11'0 0.0
2017-Jul-18 05:00N 39°53' W 075°11'0 0.0
2017-Jul-18 04:30N 39°53' W 075°11'0 0.0
2017-Jul-18 04:01N 39°53' W 075°11'0 0.0
2017-Jul-18 03:30N 39°53' W 075°11'0 0.0
2017-Jul-18 03:01N 39°53' W 075°11'0 0.0
2017-Jul-18 02:31N 39°53' W 075°11'0 0.0
2017-Jul-18 02:01N 39°53' W 075°11'0 0.0
2017-Jul-18 01:31N 39°53' W 075°11'0 0.0
2017-Jul-18 01:00N 39°53' W 075°11'0 0.0
2017-Jul-18 00:30N 39°53' W 075°11'0 0.0
2017-Jul-18 00:01N 39°53' W 075°11'0 0.0
2017-Jul-17 23:31N 39°53' W 075°11'0 0.0
2017-Jul-17 23:00N 39°53' W 075°11'0 0.0
2017-Jul-17 22:31N 39°53' W 075°11'0 0.0
2017-Jul-17 22:01N 39°53' W 075°11'0 0.0
2017-Jul-17 21:31N 39°53' W 075°11'0 0.0
2017-Jul-17 21:01N 39°53' W 075°11'0 0.0
2017-Jul-17 20:31N 39°53' W 075°11'2 4.6
2017-Jul-17 20:01N 39°54' W 075°08'0 0.4
2017-Jul-17 19:31N 39°54' W 075°08'0 0.0
2017-Jul-17 19:00N 39°54' W 075°08'0 0.0
2017-Jul-17 18:30N 39°54' W 075°08'0 0.0
2017-Jul-17 18:00N 39°54' W 075°08'0 0.6
2017-Jul-17 17:30N 39°54' W 075°08'3 5.1
2017-Jul-17 17:01N 39°53' W 075°11'0 0.1
2017-Jul-17 16:30N 39°53' W 075°11'0 0.0
2017-Jul-17 16:01N 39°53' W 075°11'0 0.0
2017-Jul-17 15:31N 39°53' W 075°11'0 0.0
2017-Jul-17 15:01N 39°53' W 075°11'0 0.0
2017-Jul-17 14:30N 39°53' W 075°11'0 0.0
2017-Jul-17 14:01N 39°53' W 075°11'0 0.0
2017-Jul-17 13:31N 39°53' W 075°11'0 0.0
2017-Jul-17 13:00N 39°53' W 075°11'0 0.0
2017-Jul-17 12:30N 39°53' W 075°11'0 0.0
2017-Jul-17 12:00N 39°53' W 075°11'0 0.0
2017-Jul-17 11:30N 39°53' W 075°11'2 3.4
2017-Jul-17 11:01N 39°53' W 075°09'1 1.9
2017-Jul-17 10:30N 39°54' W 075°08'0 0.5
2017-Jul-17 10:01N 39°54' W 075°08'1 1.9
2017-Jul-17 09:30N 39°53' W 075°09'1 1.7
2017-Jul-17 09:00N 39°54' W 075°08'0 0.2
2017-Jul-17 08:30N 39°54' W 075°08'2 4.6
2017-Jul-17 08:00N 39°53' W 075°11'0 0.0
2017-Jul-17 07:31N 39°53' W 075°11'0 0.0
2017-Jul-17 07:00N 39°53' W 075°11'0 0.0
2017-Jul-17 06:30N 39°53' W 075°11'0 0.0
2017-Jul-17 06:00N 39°53' W 075°11'0 0.0
2017-Jul-17 05:30N 39°53' W 075°11'0 0.0
2017-Jul-17 05:00N 39°53' W 075°11'0 0.0
2017-Jul-17 04:30N 39°53' W 075°11'0 0.0
2017-Jul-17 04:01N 39°53' W 075°11'0 0.0
2017-Jul-17 03:30N 39°53' W 075°11'0 0.0
2017-Jul-17 03:00N 39°53' W 075°11'0 0.0
2017-Jul-17 02:30N 39°53' W 075°11'0 0.0
2017-Jul-17 02:00N 39°53' W 075°11'0 0.0
2017-Jul-17 01:30N 39°53' W 075°11'0 0.0
2017-Jul-17 01:00N 39°53' W 075°11'0 0.0
2017-Jul-17 00:30N 39°53' W 075°11'0 0.0
2017-Jul-17 00:00N 39°53' W 075°11'0 0.0
2017-Jul-16 23:30N 39°53' W 075°11'0 0.0
2017-Jul-16 23:00N 39°53' W 075°11'0 0.0
2017-Jul-16 22:30N 39°53' W 075°11'0 0.0
2017-Jul-16 22:00N 39°53' W 075°11'0 0.0
2017-Jul-16 21:31N 39°53' W 075°11'0 0.0
2017-Jul-16 21:00N 39°53' W 075°11'0 0.0
2017-Jul-16 20:30N 39°53' W 075°11'0 0.0
2017-Jul-16 20:00N 39°53' W 075°11'0 0.9
2017-Jul-16 19:30N 39°53' W 075°11'2 3.8
2017-Jul-16 19:00N 39°54' W 075°08'0 0.7
2017-Jul-16 18:30N 39°53' W 075°08'2 4.0
2017-Jul-16 18:00N 39°53' W 075°11'0 0.4
2017-Jul-16 17:30N 39°53' W 075°11'0 0.0
2017-Jul-16 17:01N 39°53' W 075°11'0 0.0
2017-Jul-16 16:30N 39°53' W 075°11'0 0.0
2017-Jul-16 16:00N 39°53' W 075°11'0 0.0
2017-Jul-16 15:31N 39°53' W 075°11'0 0.0
2017-Jul-16 15:00N 39°53' W 075°11'0 0.0
2017-Jul-16 14:30N 39°53' W 075°11'1 1.3
2017-Jul-16 14:00N 39°53' W 075°12'4 7.7
2017-Jul-16 13:30N 39°51' W 075°16'0 0.0
2017-Jul-16 13:00N 39°51' W 075°16'0 0.6
2017-Jul-16 12:30N 39°51' W 075°16'1 1.4
2017-Jul-16 12:00N 39°51' W 075°17'1 2.6
2017-Jul-16 11:31N 39°51' W 075°16'0 0.0
2017-Jul-16 11:00N 39°51' W 075°16'0 0.0
2017-Jul-16 10:30N 39°51' W 075°16'0 0.0
2017-Jul-16 10:00N 39°51' W 075°16'0 0.0
2017-Jul-16 09:30N 39°51' W 075°16'0 0.0
2017-Jul-16 09:01N 39°51' W 075°16'0 0.0
2017-Jul-16 08:31N 39°51' W 075°16'0 0.0
2017-Jul-16 08:00N 39°51' W 075°16'0 0.0
2017-Jul-16 07:31N 39°51' W 075°16'0 0.0
2017-Jul-16 07:00N 39°51' W 075°16'0 0.0
2017-Jul-16 06:30N 39°51' W 075°16'0 0.0
2017-Jul-16 06:00N 39°51' W 075°16'0 0.0
2017-Jul-16 05:30N 39°51' W 075°16'0 0.0
2017-Jul-16 05:01N 39°51' W 075°16'0 0.0
2017-Jul-16 04:30N 39°51' W 075°16'0 0.0
2017-Jul-16 04:00N 39°51' W 075°16'0 0.0
2017-Jul-16 03:30N 39°51' W 075°16'0 0.0
2017-Jul-16 03:00N 39°51' W 075°16'0 0.0
2017-Jul-16 02:30N 39°51' W 075°16'0 0.0
2017-Jul-16 02:00N 39°51' W 075°16'4 8.4
2017-Jul-16 01:30N 39°53' W 075°11'1 1.6
2017-Jul-16 01:00N 39°53' W 075°10'4 7.7
2017-Jul-16 00:30N 39°57' W 075°08'3 5.6
2017-Jul-16 00:00N 39°59' W 075°06'0 0.1
2017-Jul-15 23:30N 39°59' W 075°06'0 0.0
2017-Jul-15 23:00N 39°59' W 075°06'0 0.0
2017-Jul-15 22:30N 39°59' W 075°06'0 0.0
2017-Jul-15 22:00N 39°59' W 075°06'1 1.6
2017-Jul-15 21:30N 39°58' W 075°07'4 7.5
2017-Jul-15 21:00N 39°55' W 075°08'510.0
2017-Jul-15 20:31N 39°52' W 075°13'1 1.9
2017-Jul-15 20:00N 39°51' W 075°14'1 2.5
2017-Jul-15 19:30N 39°51' W 075°16'0 0.0
2017-Jul-15 19:01N 39°51' W 075°16'0 0.7
2017-Jul-15 18:30N 39°51' W 075°16'1 1.2
2017-Jul-15 18:00N 39°51' W 075°15'4 7.9
2017-Jul-15 17:30N 39°53' W 075°11'0 0.0
2017-Jul-15 17:00N 39°53' W 075°11'0 0.0
2017-Jul-15 16:30N 39°53' W 075°11'0 0.0
2017-Jul-15 16:00N 39°53' W 075°11'0 0.0
2017-Jul-15 15:30N 39°53' W 075°11'0 0.0
2017-Jul-15 15:00N 39°53' W 075°11'0 0.0
2017-Jul-15 14:00N 39°53' W 075°11'0 0.0
2017-Jul-15 13:30N 39°53' W 075°11'0 0.0
2017-Jul-15 13:00N 39°53' W 075°11'0 0.0
2017-Jul-15 12:31N 39°53' W 075°11'0 0.0
2017-Jul-15 12:00N 39°53' W 075°11'0 0.0
2017-Jul-15 11:30N 39°53' W 075°11'0 0.0
2017-Jul-15 11:01N 39°53' W 075°11'0 0.0
2017-Jul-15 10:31N 39°53' W 075°11'0 0.0
2017-Jul-15 10:00N 39°53' W 075°11'0 0.0
2017-Jul-15 09:30N 39°53' W 075°11'0 0.0
2017-Jul-15 09:01N 39°53' W 075°11'0 0.0
2017-Jul-15 08:30N 39°53' W 075°11'0 0.0
2017-Jul-15 08:00N 39°53' W 075°11'0 0.0
2017-Jul-15 07:30N 39°53' W 075°11'3 5.4
2017-Jul-15 07:00N 39°54' W 075°08'4 7.7
2017-Jul-15 06:30N 39°58' W 075°07'1 2.2
2017-Jul-15 06:00N 39°59' W 075°06'1 1.4
2017-Jul-15 05:30N 39°58' W 075°07'2 4.9
2017-Jul-15 05:00N 39°56' W 075°08'4 7.3
2017-Jul-15 04:30N 39°53' W 075°10'1 1.1
2017-Jul-15 04:01N 39°53' W 075°11'0 0.0
2017-Jul-15 03:30N 39°53' W 075°11'2 4.2
2017-Jul-15 03:00N 39°52' W 075°13'2 4.5
2017-Jul-15 02:30N 39°51' W 075°16'0 0.3
2017-Jul-15 02:00N 39°51' W 075°16'0 0.6
2017-Jul-15 01:30N 39°51' W 075°16'0 0.0
2017-Jul-15 01:00N 39°51' W 075°16'0 0.3
2017-Jul-15 00:30N 39°51' W 075°16'2 3.4
2017-Jul-15 00:00N 39°51' W 075°19'2 3.0
2017-Jul-14 23:30N 39°51' W 075°20'1 2.7
2017-Jul-14 23:00N 39°51' W 075°19'2 4.6
2017-Jul-14 22:30N 39°51' W 075°16'0 0.0
2017-Jul-14 22:00N 39°51' W 075°16'1 1.2
2017-Jul-14 21:30N 39°51' W 075°15'0 0.0
2017-Jul-14 21:00N 39°51' W 075°15'0 0.0
2017-Jul-14 20:29N 39°51' W 075°15'0 0.0
2017-Jul-14 20:00N 39°51' W 075°15'0 0.0
2017-Jul-14 19:30N 39°51' W 075°15'0 0.9
2017-Jul-14 19:00N 39°51' W 075°15'3 6.5
2017-Jul-14 18:31N 39°53' W 075°11'0 0.0
2017-Jul-14 18:00N 39°53' W 075°11'0 0.0
2017-Jul-14 17:30N 39°53' W 075°11'0 0.0
2017-Jul-14 17:01N 39°53' W 075°11'0 0.0
2017-Jul-14 16:30N 39°53' W 075°11'0 0.0
2017-Jul-14 16:00N 39°53' W 075°11'0 0.0
2017-Jul-14 15:31N 39°53' W 075°11'0 0.0
2017-Jul-14 15:00N 39°53' W 075°11'0 0.0
2017-Jul-14 14:30N 39°53' W 075°11'0 0.0
2017-Jul-14 14:00N 39°53' W 075°11'0 0.0
2017-Jul-14 13:31N 39°53' W 075°11'0 0.0
2017-Jul-14 13:00N 39°53' W 075°11'1 1.3
2017-Jul-14 12:30N 39°53' W 075°12'4 7.1
2017-Jul-14 12:00N 39°51' W 075°16'0 0.2
2017-Jul-14 11:30N 39°51' W 075°16'0 0.0
2017-Jul-14 11:00N 39°51' W 075°16'0 0.0
2017-Jul-14 10:30N 39°51' W 075°16'0 0.0
2017-Jul-14 10:00N 39°51' W 075°16'0 0.0
2017-Jul-14 09:31N 39°51' W 075°16'0 0.0
2017-Jul-14 09:01N 39°51' W 075°16'0 0.0
2017-Jul-14 08:31N 39°51' W 075°16'0 0.0
2017-Jul-14 08:01N 39°51' W 075°16'0 0.0
2017-Jul-14 07:30N 39°51' W 075°16'0 0.0
2017-Jul-14 07:00N 39°51' W 075°16'0 0.0
2017-Jul-14 06:30N 39°51' W 075°16'0 0.0
2017-Jul-14 06:01N 39°51' W 075°16'0 0.0
2017-Jul-14 05:31N 39°51' W 075°16'0 0.0
2017-Jul-14 05:00N 39°51' W 075°16'0 0.0
2017-Jul-14 04:31N 39°51' W 075°16'0 0.0
2017-Jul-14 04:00N 39°51' W 075°16'0 0.0
2017-Jul-14 03:31N 39°51' W 075°16'0 0.0
2017-Jul-14 03:00N 39°51' W 075°16'0 0.0
2017-Jul-14 02:30N 39°51' W 075°16'0 0.0
2017-Jul-14 02:01N 39°51' W 075°16'0 0.0
2017-Jul-14 01:30N 39°51' W 075°16'0 0.0
2017-Jul-14 01:01N 39°51' W 075°16'0 0.0
2017-Jul-14 00:30N 39°51' W 075°16'0 0.0
2017-Jul-14 00:00N 39°51' W 075°16'0 0.0
2017-Jul-13 23:30N 39°51' W 075°16'0 0.0
2017-Jul-13 23:00N 39°51' W 075°16'2 4.8
2017-Jul-13 22:31N 39°52' W 075°13'0 0.5
2017-Jul-13 22:00N 39°52' W 075°13'611.3
2017-Jul-13 21:30N 39°51' W 075°20'4 7.2
2017-Jul-13 21:01N 39°49' W 075°24'0 0.1
2017-Jul-13 20:30N 39°49' W 075°24'0 0.0
2017-Jul-13 20:00N 39°49' W 075°24'0 0.5
2017-Jul-13 19:30N 39°48' W 075°25'1 1.3
2017-Jul-13 19:00N 39°48' W 075°25'4 8.4
2017-Jul-13 18:30N 39°51' W 075°21'5 9.6
2017-Jul-13 18:01N 39°51' W 075°15'3 6.6
2017-Jul-13 17:30N 39°53' W 075°11'0 0.0
2017-Jul-13 17:00N 39°53' W 075°11'0 0.0
2017-Jul-13 16:30N 39°53' W 075°11'0 0.0
2017-Jul-13 16:01N 39°53' W 075°11'0 0.0
2017-Jul-13 15:30N 39°53' W 075°11'0 0.0
2017-Jul-13 15:01N 39°53' W 075°11'0 0.0
2017-Jul-13 14:31N 39°53' W 075°11'0 0.0
2017-Jul-13 14:00N 39°53' W 075°11'0 0.0
2017-Jul-13 13:30N 39°53' W 075°11'0 0.0
2017-Jul-13 13:00N 39°53' W 075°11'0 0.0
2017-Jul-13 12:31N 39°53' W 075°11'0 0.0
2017-Jul-13 12:01N 39°53' W 075°11'0 0.0
2017-Jul-13 11:30N 39°53' W 075°11'0 0.0
2017-Jul-13 11:00N 39°53' W 075°11'0 0.0
2017-Jul-13 10:30N 39°53' W 075°11'0 0.0
2017-Jul-13 10:01N 39°53' W 075°11'0 0.0
2017-Jul-13 09:31N 39°53' W 075°11'0 0.0
2017-Jul-13 09:00N 39°53' W 075°11'4 7.4
2017-Jul-13 08:30N 39°51' W 075°15'0 0.1
2017-Jul-13 08:00N 39°51' W 075°15'3 5.6
2017-Jul-13 07:31N 39°53' W 075°12'1 1.7
2017-Jul-13 07:00N 39°53' W 075°11'0 0.0
2017-Jul-13 06:31N 39°53' W 075°11'0 0.0
2017-Jul-13 06:00N 39°53' W 075°11'0 0.0
2017-Jul-13 05:30N 39°53' W 075°11'0 0.0
2017-Jul-13 05:00N 39°53' W 075°11'0 0.0
2017-Jul-13 04:31N 39°53' W 075°11'0 0.0
2017-Jul-13 04:01N 39°53' W 075°11'0 0.0
2017-Jul-13 03:30N 39°53' W 075°11'0 0.0
2017-Jul-13 03:00N 39°53' W 075°11'0 0.0
2017-Jul-13 02:31N 39°53' W 075°11'0 0.0
2017-Jul-13 02:01N 39°53' W 075°11'0 0.0
2017-Jul-13 01:31N 39°53' W 075°11'0 0.0
2017-Jul-13 01:01N 39°53' W 075°11'0 0.0
2017-Jul-13 00:31N 39°53' W 075°11'0 0.0
2017-Jul-13 00:00N 39°53' W 075°11'0 0.0
2017-Jul-12 23:30N 39°53' W 075°11'0 0.0
2017-Jul-12 23:00N 39°53' W 075°11'0 0.0
2017-Jul-12 22:30N 39°53' W 075°11'0 0.0
2017-Jul-12 22:01N 39°53' W 075°11'0 0.0
2017-Jul-12 21:30N 39°53' W 075°11'0 0.0
2017-Jul-12 21:01N 39°53' W 075°11'0 0.0
2017-Jul-12 20:30N 39°53' W 075°11'2 3.7
2017-Jul-12 20:00N 39°52' W 075°13'0 0.0
2017-Jul-12 19:30N 39°52' W 075°13'0 0.0
2017-Jul-12 19:00N 39°52' W 075°13'1 2.7
2017-Jul-12 18:30N 39°51' W 075°14'1 2.7
2017-Jul-12 18:00N 39°52' W 075°13'2 3.7
2017-Jul-12 17:30N 39°53' W 075°11'0 0.0
2017-Jul-12 17:00N 39°53' W 075°11'0 0.0
2017-Jul-12 16:30N 39°53' W 075°11'0 0.0
2017-Jul-12 16:00N 39°53' W 075°11'0 0.0
2017-Jul-12 15:31N 39°53' W 075°11'0 0.0
2017-Jul-12 15:00N 39°53' W 075°11'0 0.1
2017-Jul-12 14:01N 39°53' W 075°11'3 5.1
2017-Jul-12 13:30N 39°54' W 075°08'0 0.1
2017-Jul-12 13:00N 39°54' W 075°08'0 0.6
2017-Jul-12 12:31N 39°54' W 075°08'0 0.0
2017-Jul-12 12:00N 39°54' W 075°08'0 0.0
2017-Jul-12 11:30N 39°54' W 075°08'0 0.0
2017-Jul-12 11:00N 39°54' W 075°08'0 0.0
2017-Jul-12 10:30N 39°54' W 075°08'0 0.0
2017-Jul-12 10:00N 39°54' W 075°08'0 0.0
2017-Jul-12 09:30N 39°54' W 075°08'0 0.0
2017-Jul-12 09:00N 39°54' W 075°08'0 0.0
2017-Jul-12 08:30N 39°54' W 075°08'0 0.1
2017-Jul-12 08:00N 39°54' W 075°08'0 0.1
2017-Jul-12 07:30N 39°54' W 075°08'2 4.6
2017-Jul-12 07:00N 39°53' W 075°11'0 0.0
2017-Jul-12 06:31N 39°53' W 075°11'0 0.0
2017-Jul-12 06:00N 39°53' W 075°11'0 0.0
2017-Jul-12 05:31N 39°53' W 075°11'0 0.0
2017-Jul-12 05:00N 39°53' W 075°11'0 0.0
2017-Jul-12 04:31N 39°53' W 075°11'0 0.1
2017-Jul-12 04:01N 39°53' W 075°11'0 0.0
2017-Jul-12 03:30N 39°53' W 075°11'0 0.0
2017-Jul-12 03:01N 39°53' W 075°11'0 0.0
2017-Jul-12 02:31N 39°53' W 075°11'0 0.0
2017-Jul-12 02:00N 39°53' W 075°11'0 0.0
2017-Jul-12 01:30N 39°53' W 075°11'0 0.0
2017-Jul-12 01:01N 39°53' W 075°11'0 0.0
2017-Jul-12 00:31N 39°53' W 075°11'0 0.0
2017-Jul-12 00:00N 39°53' W 075°11'0 0.0
2017-Jul-11 23:30N 39°53' W 075°11'0 0.0
2017-Jul-11 23:00N 39°53' W 075°11'0 0.0
2017-Jul-11 22:30N 39°53' W 075°11'0 0.0
2017-Jul-11 22:01N 39°53' W 075°11'0 0.0
2017-Jul-11 21:30N 39°53' W 075°11'0 0.0
2017-Jul-11 21:00N 39°53' W 075°11'0 0.0
2017-Jul-11 20:30N 39°53' W 075°11'0 0.0
2017-Jul-11 20:01N 39°53' W 075°11'0 0.0
2017-Jul-11 19:30N 39°53' W 075°11'0 0.0
2017-Jul-11 19:01N 39°53' W 075°11'0 0.0
2017-Jul-11 18:31N 39°53' W 075°11'3 6.1
2017-Jul-11 18:00N 39°51' W 075°14'0 0.2
2017-Jul-11 17:30N 39°51' W 075°14'2 3.2
2017-Jul-11 17:01N 39°52' W 075°12'2 3.4
2017-Jul-11 16:30N 39°51' W 075°14'0 0.2
2017-Jul-11 16:00N 39°51' W 075°14'1 2.9
2017-Jul-11 15:30N 39°51' W 075°16'0 0.0
2017-Jul-11 15:00N 39°51' W 075°16'0 0.6
2017-Jul-11 14:30N 39°51' W 075°16'0 0.0
2017-Jul-11 14:00N 39°51' W 075°16'0 0.0
2017-Jul-11 13:30N 39°51' W 075°16'0 0.0
2017-Jul-11 13:00N 39°51' W 075°16'0 0.0
2017-Jul-11 12:30N 39°51' W 075°16'0 0.0
2017-Jul-11 12:01N 39°51' W 075°16'0 0.0
2017-Jul-11 11:30N 39°51' W 075°16'0 0.0
2017-Jul-11 11:00N 39°51' W 075°16'0 0.0
2017-Jul-11 10:30N 39°51' W 075°16'0 0.0
2017-Jul-11 10:01N 39°51' W 075°16'0 0.0
2017-Jul-11 09:30N 39°51' W 075°16'0 0.0
2017-Jul-11 09:00N 39°51' W 075°16'0 0.0
2017-Jul-11 08:30N 39°51' W 075°16'0 0.0
2017-Jul-11 08:01N 39°51' W 075°16'0 0.0
2017-Jul-11 07:31N 39°51' W 075°16'0 0.0
2017-Jul-11 07:01N 39°51' W 075°16'0 0.0
2017-Jul-11 06:31N 39°51' W 075°16'0 0.0
2017-Jul-11 06:01N 39°51' W 075°16'0 0.0
2017-Jul-11 05:31N 39°51' W 075°16'0 0.0
2017-Jul-11 05:00N 39°51' W 075°16'1 1.9
2017-Jul-11 04:31N 39°51' W 075°17'612.3
2017-Jul-11 04:00N 39°48' W 075°24'611.2
2017-Jul-11 03:30N 39°45' W 075°30'714.4
2017-Jul-11 03:00N 39°38' W 075°34'713.5
2017-Jul-11 02:31N 39°32' W 075°33'713.5
2017-Jul-11 02:00N 39°25' W 075°31'714.3
2017-Jul-11 01:31N 39°20' W 075°25'714.0
2017-Jul-11 01:00N 39°14' W 075°19'714.2
2017-Jul-11 00:30N 39°08' W 075°14'712.8
2017-Jul-10 23:56N 39°01' W 075°13'4 6.5
2017-Jul-10 23:20N 38°57' W 075°11'0 0.5
2017-Jul-10 23:00N 38°58' W 075°11'0 0.4
2017-Jul-10 22:31N 38°57' W 075°11'2 3.9
2017-Jul-10 22:00N 38°59' W 075°13'611.1
2017-Jul-10 21:30N 39°05' W 075°12'611.6
2017-Jul-10 21:00N 39°10' W 075°15'612.6
2017-Jul-10 20:31N 39°15' W 075°20'713.2
2017-Jul-10 20:01N 39°20' W 075°25'714.2
2017-Jul-10 19:31N 39°25' W 075°31'612.8
2017-Jul-10 19:01N 39°32' W 075°33'  
Track history (hours):
 
Tides and Currents Weather Stations Pressure Air Temp Water Temp Dewpoint Dewpoint Depression Visibility Wind Speed Wind Dir Waves Ship Positions

Capt. Harry

Owner: Wilmington Tug, Inc., New Castle, DE. More information available from US FCC via Universal Licensing System and Coast Guard Vessel Documentation Center.

Last reported at 2017-Jul-20 18:31 UTC. Time now 2017-Jul-20 18:32 UTC.
Position N 39°53' W 075°11'.

Length 24 m; draft 4 m.

Type: Tug. MMSI: 367012530.

Date/timePositionNaut miles runAvg speedWind from/ knotsBaromVisibWave heightAir tempDewpointWater temp
2017-Jul-20 18:31N 39°53' W 075°11'0 0.0
2017-Jul-20 18:00N 39°53' W 075°11'0 0.0
2017-Jul-20 17:31N 39°53' W 075°11'0 0.0
2017-Jul-20 17:01N 39°53' W 075°11'0 0.0
2017-Jul-20 16:30N 39°53' W 075°11'0 0.0
2017-Jul-20 16:01N 39°53' W 075°11'0 0.0
2017-Jul-20 15:30N 39°53' W 075°11'0 0.2
2017-Jul-20 15:00N 39°53' W 075°11'1211.6
2017-Jul-20 14:00N 39°48' W 075°25'0 0.1
2017-Jul-20 13:30N 39°48' W 075°25'0 0.9
2017-Jul-20 13:00N 39°48' W 075°25'1 1.9
2017-Jul-20 12:30N 39°48' W 075°26'1 1.3
2017-Jul-20 12:00N 39°48' W 075°26'0 0.2
2017-Jul-20 11:30N 39°48' W 075°26'0 0.0
2017-Jul-20 11:00N 39°48' W 075°26'0 0.0
2017-Jul-20 10:30N 39°48' W 075°26'0 0.0
2017-Jul-20 10:00N 39°48' W 075°26'0 0.0
2017-Jul-20 09:30N 39°48' W 075°26'0 0.0
2017-Jul-20 09:00N 39°48' W 075°26'0 1.0
2017-Jul-20 08:30N 39°48' W 075°25'0 0.0
2017-Jul-20 08:00N 39°48' W 075°25'0 0.3
2017-Jul-20 07:30N 39°48' W 075°25'0 0.0
2017-Jul-20 07:00N 39°48' W 075°25'0 0.4
2017-Jul-20 06:30N 39°48' W 075°25'1 2.7
2017-Jul-20 06:01N 39°49' W 075°24'713.9
2017-Jul-20 05:30N 39°51' W 075°15'2 3.5
2017-Jul-20 05:00N 39°52' W 075°13'0 0.0
2017-Jul-20 04:30N 39°52' W 075°13'1 2.6
2017-Jul-20 04:00N 39°51' W 075°15'611.4
2017-Jul-20 03:30N 39°50' W 075°22'611.0
2017-Jul-20 03:00N 39°47' W 075°28'4 9.0
2017-Jul-20 02:30N 39°43' W 075°31'0 0.0
2017-Jul-20 02:01N 39°43' W 075°31'0 0.0
2017-Jul-20 01:31N 39°43' W 075°31'0 0.0
2017-Jul-20 01:01N 39°43' W 075°31'0 0.0
2017-Jul-20 00:30N 39°43' W 075°31'0 0.0
2017-Jul-20 00:00N 39°43' W 075°31'0 0.0
2017-Jul-19 23:30N 39°43' W 075°31'0 0.0
2017-Jul-19 23:00N 39°43' W 075°31'0 0.0
2017-Jul-19 22:30N 39°43' W 075°31'0 0.0
2017-Jul-19 22:00N 39°43' W 075°31'0 0.0
2017-Jul-19 21:30N 39°43' W 075°31'0 0.0
2017-Jul-19 21:00N 39°43' W 075°31'0 0.0
2017-Jul-19 20:30N 39°43' W 075°31'0 0.0
2017-Jul-19 20:00N 39°43' W 075°31'0 0.0
2017-Jul-19 19:30N 39°43' W 075°31'0 0.0
2017-Jul-19 19:00N 39°43' W 075°31'0 0.0
2017-Jul-19 18:30N 39°43' W 075°31'0 0.1
2017-Jul-19 18:00N 39°43' W 075°31'0 0.1
2017-Jul-19 17:30N 39°43' W 075°31'0 0.0
2017-Jul-19 17:00N 39°43' W 075°31'0 0.0
2017-Jul-19 16:30N 39°43' W 075°31'0 0.0
2017-Jul-19 16:00N 39°43' W 075°31'0 0.0
2017-Jul-19 15:30N 39°43' W 075°31'0 0.0
2017-Jul-19 15:00N 39°43' W 075°31'0 0.0
2017-Jul-19 14:30N 39°43' W 075°31'0 0.0
2017-Jul-19 14:00N 39°43' W 075°31'0 0.0
2017-Jul-19 13:30N 39°43' W 075°31'0 0.0
2017-Jul-19 13:00N 39°43' W 075°31'0 0.0
2017-Jul-19 12:30N 39°43' W 075°31'0 0.0
2017-Jul-19 12:01N 39°43' W 075°31'0 0.0
2017-Jul-19 11:31N 39°43' W 075°31'0 0.0
2017-Jul-19 11:00N 39°43' W 075°31'0 0.0
2017-Jul-19 10:31N 39°43' W 075°31'0 0.0
2017-Jul-19 10:00N 39°43' W 075°31'0 0.0
2017-Jul-19 09:31N 39°43' W 075°31'0 0.0
2017-Jul-19 09:01N 39°43' W 075°31'0 0.0
2017-Jul-19 08:30N 39°43' W 075°31'0 0.0
2017-Jul-19 08:00N 39°43' W 075°31'0 0.0
2017-Jul-19 07:31N 39°43' W 075°31'0 0.0
2017-Jul-19 07:00N 39°43' W 075°31'0 0.0
2017-Jul-19 06:30N 39°43' W 075°31'0 0.0
2017-Jul-19 06:00N 39°43' W 075°31'0 0.0
2017-Jul-19 05:19N 39°43' W 075°31'0 0.0
2017-Jul-19 05:00N 39°43' W 075°31'1 2.7
2017-Jul-19 04:31N 39°44' W 075°30'713.3
2017-Jul-19 04:00N 39°49' W 075°24'612.8
2017-Jul-19 03:30N 39°51' W 075°16'4 8.6
2017-Jul-19 03:00N 39°53' W 075°11'0 0.0
2017-Jul-19 02:31N 39°53' W 075°11'0 0.0
2017-Jul-19 02:01N 39°53' W 075°11'0 0.0
2017-Jul-19 01:30N 39°53' W 075°11'2 3.8
2017-Jul-19 01:00N 39°52' W 075°13'0 0.0
2017-Jul-19 00:30N 39°52' W 075°13'0 0.0
2017-Jul-19 00:00N 39°52' W 075°13'0 0.2
2017-Jul-18 23:30N 39°52' W 075°13'2 4.4
2017-Jul-18 23:00N 39°51' W 075°16'2 4.4
2017-Jul-18 22:30N 39°52' W 075°13'2 3.4
2017-Jul-18 22:00N 39°53' W 075°11'0 0.4
2017-Jul-18 21:30N 39°53' W 075°11'0 0.0
2017-Jul-18 21:00N 39°53' W 075°11'0 0.0
2017-Jul-18 20:30N 39°53' W 075°11'0 0.0
2017-Jul-18 20:00N 39°53' W 075°11'0 0.0
2017-Jul-18 19:30N 39°53' W 075°11'0 0.0
2017-Jul-18 19:00N 39°53' W 075°11'0 0.0
2017-Jul-18 18:31N 39°53' W 075°11'0 0.0
2017-Jul-18 18:01N 39°53' W 075°11'0 0.0
2017-Jul-18 17:30N 39°53' W 075°11'0 0.0
2017-Jul-18 17:01N 39°53' W 075°11'0 0.0
2017-Jul-18 16:30N 39°53' W 075°11'1 1.0
2017-Jul-18 16:01N 39°53' W 075°12'2 3.7
2017-Jul-18 15:31N 39°55' W 075°13'1 2.7
2017-Jul-18 15:00N 39°54' W 075°12'1 0.7
2017-Jul-18 14:01N 39°53' W 075°11'0 0.0
2017-Jul-18 13:30N 39°53' W 075°11'0 0.0
2017-Jul-18 13:00N 39°53' W 075°11'0 0.7
2017-Jul-18 12:30N 39°53' W 075°11'2 4.6
2017-Jul-18 12:00N 39°54' W 075°08'0 0.4
2017-Jul-18 11:30N 39°54' W 075°08'0 0.6
2017-Jul-18 11:00N 39°54' W 075°08'0 0.2
2017-Jul-18 10:30N 39°54' W 075°08'2 3.4
2017-Jul-18 10:00N 39°53' W 075°10'1 2.9
2017-Jul-18 09:30N 39°54' W 075°08'0 0.1
2017-Jul-18 09:00N 39°54' W 075°08'2 4.6
2017-Jul-18 08:31N 39°53' W 075°11'0 0.0
2017-Jul-18 08:01N 39°53' W 075°11'0 0.0
2017-Jul-18 07:30N 39°53' W 075°11'0 0.0
2017-Jul-18 07:00N 39°53' W 075°11'0 0.0
2017-Jul-18 06:30N 39°53' W 075°11'0 0.0
2017-Jul-18 06:00N 39°53' W 075°11'0 0.0
2017-Jul-18 05:30N 39°53' W 075°11'0 0.0
2017-Jul-18 05:00N 39°53' W 075°11'0 0.0
2017-Jul-18 04:30N 39°53' W 075°11'0 0.0
2017-Jul-18 04:01N 39°53' W 075°11'0 0.0
2017-Jul-18 03:30N 39°53' W 075°11'0 0.0
2017-Jul-18 03:01N 39°53' W 075°11'0 0.0
2017-Jul-18 02:31N 39°53' W 075°11'0 0.0
2017-Jul-18 02:01N 39°53' W 075°11'0 0.0
2017-Jul-18 01:31N 39°53' W 075°11'0 0.0
2017-Jul-18 01:00N 39°53' W 075°11'0 0.0
2017-Jul-18 00:30N 39°53' W 075°11'0 0.0
2017-Jul-18 00:01N 39°53' W 075°11'0 0.0
2017-Jul-17 23:31N 39°53' W 075°11'0 0.0
2017-Jul-17 23:00N 39°53' W 075°11'0 0.0
2017-Jul-17 22:31N 39°53' W 075°11'0 0.0
2017-Jul-17 22:01N 39°53' W 075°11'0 0.0
2017-Jul-17 21:31N 39°53' W 075°11'0 0.0
2017-Jul-17 21:01N 39°53' W 075°11'0 0.0
2017-Jul-17 20:31N 39°53' W 075°11'2 4.6
2017-Jul-17 20:01N 39°54' W 075°08'0 0.4
2017-Jul-17 19:31N 39°54' W 075°08'0 0.0
2017-Jul-17 19:00N 39°54' W 075°08'0 0.0
2017-Jul-17 18:30N 39°54' W 075°08'0 0.0
2017-Jul-17 18:00N 39°54' W 075°08'0 0.6
2017-Jul-17 17:30N 39°54' W 075°08'3 5.1
2017-Jul-17 17:01N 39°53' W 075°11'0 0.1
2017-Jul-17 16:30N 39°53' W 075°11'0 0.0
2017-Jul-17 16:01N 39°53' W 075°11'0 0.0
2017-Jul-17 15:31N 39°53' W 075°11'0 0.0
2017-Jul-17 15:01N 39°53' W 075°11'0 0.0
2017-Jul-17 14:30N 39°53' W 075°11'0 0.0
2017-Jul-17 14:01N 39°53' W 075°11'0 0.0
2017-Jul-17 13:31N 39°53' W 075°11'0 0.0
2017-Jul-17 13:00N 39°53' W 075°11'0 0.0
2017-Jul-17 12:30N 39°53' W 075°11'0 0.0
2017-Jul-17 12:00N 39°53' W 075°11'0 0.0
2017-Jul-17 11:30N 39°53' W 075°11'2 3.4
2017-Jul-17 11:01N 39°53' W 075°09'1 1.9
2017-Jul-17 10:30N 39°54' W 075°08'0 0.5
2017-Jul-17 10:01N 39°54' W 075°08'1 1.9
2017-Jul-17 09:30N 39°53' W 075°09'1 1.7
2017-Jul-17 09:00N 39°54' W 075°08'0 0.2
2017-Jul-17 08:30N 39°54' W 075°08'2 4.6
2017-Jul-17 08:00N 39°53' W 075°11'0 0.0
2017-Jul-17 07:31N 39°53' W 075°11'0 0.0
2017-Jul-17 07:00N 39°53' W 075°11'0 0.0
2017-Jul-17 06:30N 39°53' W 075°11'0 0.0
2017-Jul-17 06:00N 39°53' W 075°11'0 0.0
2017-Jul-17 05:30N 39°53' W 075°11'0 0.0
2017-Jul-17 05:00N 39°53' W 075°11'0 0.0
2017-Jul-17 04:30N 39°53' W 075°11'0 0.0
2017-Jul-17 04:01N 39°53' W 075°11'0 0.0
2017-Jul-17 03:30N 39°53' W 075°11'0 0.0
2017-Jul-17 03:00N 39°53' W 075°11'0 0.0
2017-Jul-17 02:30N 39°53' W 075°11'0 0.0
2017-Jul-17 02:00N 39°53' W 075°11'0 0.0
2017-Jul-17 01:30N 39°53' W 075°11'0 0.0
2017-Jul-17 01:00N 39°53' W 075°11'0 0.0
2017-Jul-17 00:30N 39°53' W 075°11'0 0.0
2017-Jul-17 00:00N 39°53' W 075°11'0 0.0
2017-Jul-16 23:30N 39°53' W 075°11'0 0.0
2017-Jul-16 23:00N 39°53' W 075°11'0 0.0
2017-Jul-16 22:30N 39°53' W 075°11'0 0.0
2017-Jul-16 22:00N 39°53' W 075°11'0 0.0
2017-Jul-16 21:31N 39°53' W 075°11'0 0.0
2017-Jul-16 21:00N 39°53' W 075°11'0 0.0
2017-Jul-16 20:30N 39°53' W 075°11'0 0.0
2017-Jul-16 20:00N 39°53' W 075°11'0 0.9
2017-Jul-16 19:30N 39°53' W 075°11'2 3.8
2017-Jul-16 19:00N 39°54' W 075°08'0 0.7
2017-Jul-16 18:30N 39°53' W 075°08'2 4.0
2017-Jul-16 18:00N 39°53' W 075°11'0 0.4
2017-Jul-16 17:30N 39°53' W 075°11'0 0.0
2017-Jul-16 17:01N 39°53' W 075°11'0 0.0
2017-Jul-16 16:30N 39°53' W 075°11'0 0.0
2017-Jul-16 16:00N 39°53' W 075°11'0 0.0
2017-Jul-16 15:31N 39°53' W 075°11'0 0.0
2017-Jul-16 15:00N 39°53' W 075°11'0 0.0
2017-Jul-16 14:30N 39°53' W 075°11'1 1.3
2017-Jul-16 14:00N 39°53' W 075°12'4 7.7
2017-Jul-16 13:30N 39°51' W 075°16'0 0.0
2017-Jul-16 13:00N 39°51' W 075°16'0 0.6
2017-Jul-16 12:30N 39°51' W 075°16'1 1.4
2017-Jul-16 12:00N 39°51' W 075°17'1 2.6
2017-Jul-16 11:31N 39°51' W 075°16'0 0.0
2017-Jul-16 11:00N 39°51' W 075°16'0 0.0
2017-Jul-16 10:30N 39°51' W 075°16'0 0.0
2017-Jul-16 10:00N 39°51' W 075°16'0 0.0
2017-Jul-16 09:30N 39°51' W 075°16'0 0.0
2017-Jul-16 09:01N 39°51' W 075°16'0 0.0
2017-Jul-16 08:31N 39°51' W 075°16'0 0.0
2017-Jul-16 08:00N 39°51' W 075°16'0 0.0
2017-Jul-16 07:31N 39°51' W 075°16'0 0.0
2017-Jul-16 07:00N 39°51' W 075°16'0 0.0
2017-Jul-16 06:30N 39°51' W 075°16'0 0.0
2017-Jul-16 06:00N 39°51' W 075°16'0 0.0
2017-Jul-16 05:30N 39°51' W 075°16'0 0.0
2017-Jul-16 05:01N 39°51' W 075°16'0 0.0
2017-Jul-16 04:30N 39°51' W 075°16'0 0.0
2017-Jul-16 04:00N 39°51' W 075°16'0 0.0
2017-Jul-16 03:30N 39°51' W 075°16'0 0.0
2017-Jul-16 03:00N 39°51' W 075°16'0 0.0
2017-Jul-16 02:30N 39°51' W 075°16'0 0.0
2017-Jul-16 02:00N 39°51' W 075°16'4 8.4
2017-Jul-16 01:30N 39°53' W 075°11'1 1.6
2017-Jul-16 01:00N 39°53' W 075°10'4 7.7
2017-Jul-16 00:30N 39°57' W 075°08'3 5.6
2017-Jul-16 00:00N 39°59' W 075°06'0 0.1
2017-Jul-15 23:30N 39°59' W 075°06'0 0.0
2017-Jul-15 23:00N 39°59' W 075°06'0 0.0
2017-Jul-15 22:30N 39°59' W 075°06'0 0.0
2017-Jul-15 22:00N 39°59' W 075°06'1 1.6
2017-Jul-15 21:30N 39°58' W 075°07'4 7.5
2017-Jul-15 21:00N 39°55' W 075°08'510.0
2017-Jul-15 20:31N 39°52' W 075°13'1 1.9
2017-Jul-15 20:00N 39°51' W 075°14'1 2.5
2017-Jul-15 19:30N 39°51' W 075°16'0 0.0
2017-Jul-15 19:01N 39°51' W 075°16'0 0.7
2017-Jul-15 18:30N 39°51' W 075°16'1 1.2
2017-Jul-15 18:00N 39°51' W 075°15'4 7.9
2017-Jul-15 17:30N 39°53' W 075°11'0 0.0
2017-Jul-15 17:00N 39°53' W 075°11'0 0.0
2017-Jul-15 16:30N 39°53' W 075°11'0 0.0
2017-Jul-15 16:00N 39°53' W 075°11'0 0.0
2017-Jul-15 15:30N 39°53' W 075°11'0 0.0
2017-Jul-15 15:00N 39°53' W 075°11'0 0.0
2017-Jul-15 14:00N 39°53' W 075°11'0 0.0
2017-Jul-15 13:30N 39°53' W 075°11'0 0.0
2017-Jul-15 13:00N 39°53' W 075°11'0 0.0
2017-Jul-15 12:31N 39°53' W 075°11'0 0.0
2017-Jul-15 12:00N 39°53' W 075°11'0 0.0
2017-Jul-15 11:30N 39°53' W 075°11'0 0.0
2017-Jul-15 11:01N 39°53' W 075°11'0 0.0
2017-Jul-15 10:31N 39°53' W 075°11'0 0.0
2017-Jul-15 10:00N 39°53' W 075°11'0 0.0
2017-Jul-15 09:30N 39°53' W 075°11'0 0.0
2017-Jul-15 09:01N 39°53' W 075°11'0 0.0
2017-Jul-15 08:30N 39°53' W 075°11'0 0.0
2017-Jul-15 08:00N 39°53' W 075°11'0 0.0
2017-Jul-15 07:30N 39°53' W 075°11'3 5.4
2017-Jul-15 07:00N 39°54' W 075°08'4 7.7
2017-Jul-15 06:30N 39°58' W 075°07'1 2.2
2017-Jul-15 06:00N 39°59' W 075°06'1 1.4
2017-Jul-15 05:30N 39°58' W 075°07'2 4.9
2017-Jul-15 05:00N 39°56' W 075°08'4 7.3
2017-Jul-15 04:30N 39°53' W 075°10'1 1.1
2017-Jul-15 04:01N 39°53' W 075°11'0 0.0
2017-Jul-15 03:30N 39°53' W 075°11'2 4.2
2017-Jul-15 03:00N 39°52' W 075°13'2 4.5
2017-Jul-15 02:30N 39°51' W 075°16'0 0.3
2017-Jul-15 02:00N 39°51' W 075°16'0 0.6
2017-Jul-15 01:30N 39°51' W 075°16'0 0.0
2017-Jul-15 01:00N 39°51' W 075°16'0 0.3
2017-Jul-15 00:30N 39°51' W 075°16'2 3.4
2017-Jul-15 00:00N 39°51' W 075°19'2 3.0
2017-Jul-14 23:30N 39°51' W 075°20'1 2.7
2017-Jul-14 23:00N 39°51' W 075°19'2 4.6
2017-Jul-14 22:30N 39°51' W 075°16'0 0.0
2017-Jul-14 22:00N 39°51' W 075°16'1 1.2
2017-Jul-14 21:30N 39°51' W 075°15'0 0.0
2017-Jul-14 21:00N 39°51' W 075°15'0 0.0
2017-Jul-14 20:29N 39°51' W 075°15'0 0.0
2017-Jul-14 20:00N 39°51' W 075°15'0 0.0
2017-Jul-14 19:30N 39°51' W 075°15'0 0.9
2017-Jul-14 19:00N 39°51' W 075°15'3 6.5
2017-Jul-14 18:31N 39°53' W 075°11'0 0.0
2017-Jul-14 18:00N 39°53' W 075°11'0 0.0
2017-Jul-14 17:30N 39°53' W 075°11'0 0.0
2017-Jul-14 17:01N 39°53' W 075°11'0 0.0
2017-Jul-14 16:30N 39°53' W 075°11'0 0.0
2017-Jul-14 16:00N 39°53' W 075°11'0 0.0
2017-Jul-14 15:31N 39°53' W 075°11'0 0.0
2017-Jul-14 15:00N 39°53' W 075°11'0 0.0
2017-Jul-14 14:30N 39°53' W 075°11'0 0.0
2017-Jul-14 14:00N 39°53' W 075°11'0 0.0
2017-Jul-14 13:31N 39°53' W 075°11'0 0.0
2017-Jul-14 13:00N 39°53' W 075°11'1 1.3
2017-Jul-14 12:30N 39°53' W 075°12'4 7.1
2017-Jul-14 12:00N 39°51' W 075°16'0 0.2
2017-Jul-14 11:30N 39°51' W 075°16'0 0.0
2017-Jul-14 11:00N 39°51' W 075°16'0 0.0
2017-Jul-14 10:30N 39°51' W 075°16'0 0.0
2017-Jul-14 10:00N 39°51' W 075°16'0 0.0
2017-Jul-14 09:31N 39°51' W 075°16'0 0.0
2017-Jul-14 09:01N 39°51' W 075°16'0 0.0
2017-Jul-14 08:31N 39°51' W 075°16'0 0.0
2017-Jul-14 08:01N 39°51' W 075°16'0 0.0
2017-Jul-14 07:30N 39°51' W 075°16'0 0.0
2017-Jul-14 07:00N 39°51' W 075°16'0 0.0
2017-Jul-14 06:30N 39°51' W 075°16'0 0.0
2017-Jul-14 06:01N 39°51' W 075°16'0 0.0
2017-Jul-14 05:31N 39°51' W 075°16'0 0.0
2017-Jul-14 05:00N 39°51' W 075°16'0 0.0
2017-Jul-14 04:31N 39°51' W 075°16'0 0.0
2017-Jul-14 04:00N 39°51' W 075°16'0 0.0
2017-Jul-14 03:31N 39°51' W 075°16'0 0.0
2017-Jul-14 03:00N 39°51' W 075°16'0 0.0
2017-Jul-14 02:30N 39°51' W 075°16'0 0.0
2017-Jul-14 02:01N 39°51' W 075°16'0 0.0
2017-Jul-14 01:30N 39°51' W 075°16'0 0.0
2017-Jul-14 01:01N 39°51' W 075°16'0 0.0
2017-Jul-14 00:30N 39°51' W 075°16'0 0.0
2017-Jul-14 00:00N 39°51' W 075°16'0 0.0
2017-Jul-13 23:30N 39°51' W 075°16'0 0.0
2017-Jul-13 23:00N 39°51' W 075°16'2 4.8
2017-Jul-13 22:31N 39°52' W 075°13'0 0.5
2017-Jul-13 22:00N 39°52' W 075°13'611.3
2017-Jul-13 21:30N 39°51' W 075°20'4 7.2
2017-Jul-13 21:01N 39°49' W 075°24'0 0.1
2017-Jul-13 20:30N 39°49' W 075°24'0 0.0
2017-Jul-13 20:00N 39°49' W 075°24'0 0.5
2017-Jul-13 19:30N 39°48' W 075°25'1 1.3
2017-Jul-13 19:00N 39°48' W 075°25'4 8.4
2017-Jul-13 18:30N 39°51' W 075°21'5 9.6
2017-Jul-13 18:01N 39°51' W 075°15'3 6.6
2017-Jul-13 17:30N 39°53' W 075°11'0 0.0
2017-Jul-13 17:00N 39°53' W 075°11'0 0.0
2017-Jul-13 16:30N 39°53' W 075°11'0 0.0
2017-Jul-13 16:01N 39°53' W 075°11'0 0.0
2017-Jul-13 15:30N 39°53' W 075°11'0 0.0
2017-Jul-13 15:01N 39°53' W 075°11'0 0.0
2017-Jul-13 14:31N 39°53' W 075°11'0 0.0
2017-Jul-13 14:00N 39°53' W 075°11'0 0.0
2017-Jul-13 13:30N 39°53' W 075°11'0 0.0
2017-Jul-13 13:00N 39°53' W 075°11'0 0.0
2017-Jul-13 12:31N 39°53' W 075°11'0 0.0
2017-Jul-13 12:01N 39°53' W 075°11'0 0.0
2017-Jul-13 11:30N 39°53' W 075°11'0 0.0
2017-Jul-13 11:00N 39°53' W 075°11'0 0.0
2017-Jul-13 10:30N 39°53' W 075°11'0 0.0
2017-Jul-13 10:01N 39°53' W 075°11'0 0.0
2017-Jul-13 09:31N 39°53' W 075°11'0 0.0
2017-Jul-13 09:00N 39°53' W 075°11'4 7.4
2017-Jul-13 08:30N 39°51' W 075°15'0 0.1
2017-Jul-13 08:00N 39°51' W 075°15'3 5.6
2017-Jul-13 07:31N 39°53' W 075°12'1 1.7
2017-Jul-13 07:00N 39°53' W 075°11'0 0.0
2017-Jul-13 06:31N 39°53' W 075°11'0 0.0
2017-Jul-13 06:00N 39°53' W 075°11'0 0.0
2017-Jul-13 05:30N 39°53' W 075°11'0 0.0
2017-Jul-13 05:00N 39°53' W 075°11'0 0.0
2017-Jul-13 04:31N 39°53' W 075°11'0 0.0
2017-Jul-13 04:01N 39°53' W 075°11'0 0.0
2017-Jul-13 03:30N 39°53' W 075°11'0 0.0
2017-Jul-13 03:00N 39°53' W 075°11'0 0.0
2017-Jul-13 02:31N 39°53' W 075°11'0 0.0
2017-Jul-13 02:01N 39°53' W 075°11'0 0.0
2017-Jul-13 01:31N 39°53' W 075°11'0 0.0
2017-Jul-13 01:01N 39°53' W 075°11'0 0.0
2017-Jul-13 00:31N 39°53' W 075°11'0 0.0
2017-Jul-13 00:00N 39°53' W 075°11'0 0.0
2017-Jul-12 23:30N 39°53' W 075°11'0 0.0
2017-Jul-12 23:00N 39°53' W 075°11'0 0.0
2017-Jul-12 22:30N 39°53' W 075°11'0 0.0
2017-Jul-12 22:01N 39°53' W 075°11'0 0.0
2017-Jul-12 21:30N 39°53' W 075°11'0 0.0
2017-Jul-12 21:01N 39°53' W 075°11'0 0.0
2017-Jul-12 20:30N 39°53' W 075°11'2 3.7
2017-Jul-12 20:00N 39°52' W 075°13'0 0.0
2017-Jul-12 19:30N 39°52' W 075°13'0 0.0
2017-Jul-12 19:00N 39°52' W 075°13'1 2.7
2017-Jul-12 18:30N 39°51' W 075°14'1 2.7
2017-Jul-12 18:00N 39°52' W 075°13'2 3.7
2017-Jul-12 17:30N 39°53' W 075°11'0 0.0
2017-Jul-12 17:00N 39°53' W 075°11'0 0.0
2017-Jul-12 16:30N 39°53' W 075°11'0 0.0
2017-Jul-12 16:00N 39°53' W 075°11'0 0.0
2017-Jul-12 15:31N 39°53' W 075°11'0 0.0
2017-Jul-12 15:00N 39°53' W 075°11'0 0.1
2017-Jul-12 14:01N 39°53' W 075°11'3 5.1
2017-Jul-12 13:30N 39°54' W 075°08'0 0.1
2017-Jul-12 13:00N 39°54' W 075°08'0 0.6
2017-Jul-12 12:31N 39°54' W 075°08'0 0.0
2017-Jul-12 12:00N 39°54' W 075°08'0 0.0
2017-Jul-12 11:30N 39°54' W 075°08'0 0.0
2017-Jul-12 11:00N 39°54' W 075°08'0 0.0
2017-Jul-12 10:30N 39°54' W 075°08'0 0.0
2017-Jul-12 10:00N 39°54' W 075°08'0 0.0
2017-Jul-12 09:30N 39°54' W 075°08'0 0.0
2017-Jul-12 09:00N 39°54' W 075°08'0 0.0
2017-Jul-12 08:30N 39°54' W 075°08'0 0.1
2017-Jul-12 08:00N 39°54' W 075°08'0 0.1
2017-Jul-12 07:30N 39°54' W 075°08'2 4.6
2017-Jul-12 07:00N 39°53' W 075°11'0 0.0
2017-Jul-12 06:31N 39°53' W 075°11'0 0.0
2017-Jul-12 06:00N 39°53' W 075°11'0 0.0
2017-Jul-12 05:31N 39°53' W 075°11'0 0.0
2017-Jul-12 05:00N 39°53' W 075°11'0 0.0
2017-Jul-12 04:31N 39°53' W 075°11'0 0.1
2017-Jul-12 04:01N 39°53' W 075°11'0 0.0
2017-Jul-12 03:30N 39°53' W 075°11'0 0.0
2017-Jul-12 03:01N 39°53' W 075°11'0 0.0
2017-Jul-12 02:31N 39°53' W 075°11'0 0.0
2017-Jul-12 02:00N 39°53' W 075°11'0 0.0
2017-Jul-12 01:30N 39°53' W 075°11'0 0.0
2017-Jul-12 01:01N 39°53' W 075°11'0 0.0
2017-Jul-12 00:31N 39°53' W 075°11'0 0.0
2017-Jul-12 00:00N 39°53' W 075°11'0 0.0
2017-Jul-11 23:30N 39°53' W 075°11'0 0.0
2017-Jul-11 23:00N 39°53' W 075°11'0 0.0
2017-Jul-11 22:30N 39°53' W 075°11'0 0.0
2017-Jul-11 22:01N 39°53' W 075°11'0 0.0
2017-Jul-11 21:30N 39°53' W 075°11'0 0.0
2017-Jul-11 21:00N 39°53' W 075°11'0 0.0
2017-Jul-11 20:30N 39°53' W 075°11'0 0.0
2017-Jul-11 20:01N 39°53' W 075°11'0 0.0
2017-Jul-11 19:30N 39°53' W 075°11'0 0.0
2017-Jul-11 19:01N 39°53' W 075°11'0 0.0
2017-Jul-11 18:31N 39°53' W 075°11'3 6.1
2017-Jul-11 18:00N 39°51' W 075°14'0 0.2
2017-Jul-11 17:30N 39°51' W 075°14'2 3.2
2017-Jul-11 17:01N 39°52' W 075°12'2 3.4
2017-Jul-11 16:30N 39°51' W 075°14'0 0.2
2017-Jul-11 16:00N 39°51' W 075°14'1 2.9
2017-Jul-11 15:30N 39°51' W 075°16'0 0.0
2017-Jul-11 15:00N 39°51' W 075°16'0 0.6
2017-Jul-11 14:30N 39°51' W 075°16'0 0.0
2017-Jul-11 14:00N 39°51' W 075°16'0 0.0
2017-Jul-11 13:30N 39°51' W 075°16'0 0.0
2017-Jul-11 13:00N 39°51' W 075°16'0 0.0
2017-Jul-11 12:30N 39°51' W 075°16'0 0.0
2017-Jul-11 12:01N 39°51' W 075°16'0 0.0
2017-Jul-11 11:30N 39°51' W 075°16'0 0.0
2017-Jul-11 11:00N 39°51' W 075°16'0 0.0
2017-Jul-11 10:30N 39°51' W 075°16'0 0.0
2017-Jul-11 10:01N 39°51' W 075°16'0 0.0
2017-Jul-11 09:30N 39°51' W 075°16'0 0.0
2017-Jul-11 09:00N 39°51' W 075°16'0 0.0
2017-Jul-11 08:30N 39°51' W 075°16'0 0.0
2017-Jul-11 08:01N 39°51' W 075°16'0 0.0
2017-Jul-11 07:31N 39°51' W 075°16'0 0.0
2017-Jul-11 07:01N 39°51' W 075°16'0 0.0
2017-Jul-11 06:31N 39°51' W 075°16'0 0.0
2017-Jul-11 06:01N 39°51' W 075°16'0 0.0
2017-Jul-11 05:31N 39°51' W 075°16'0 0.0
2017-Jul-11 05:00N 39°51' W 075°16'1 1.9
2017-Jul-11 04:31N 39°51' W 075°17'612.3
2017-Jul-11 04:00N 39°48' W 075°24'611.2
2017-Jul-11 03:30N 39°45' W 075°30'714.4
2017-Jul-11 03:00N 39°38' W 075°34'713.5
2017-Jul-11 02:31N 39°32' W 075°33'713.5
2017-Jul-11 02:00N 39°25' W 075°31'714.3
2017-Jul-11 01:31N 39°20' W 075°25'714.0
2017-Jul-11 01:00N 39°14' W 075°19'714.2
2017-Jul-11 00:30N 39°08' W 075°14'712.8
2017-Jul-10 23:56N 39°01' W 075°13'4 6.5
2017-Jul-10 23:20N 38°57' W 075°11'0 0.5
2017-Jul-10 23:00N 38°58' W 075°11'0 0.4
2017-Jul-10 22:31N 38°57' W 075°11'2 3.9
2017-Jul-10 22:00N 38°59' W 075°13'611.1
2017-Jul-10 21:30N 39°05' W 075°12'611.6
2017-Jul-10 21:00N 39°10' W 075°15'612.6
2017-Jul-10 20:31N 39°15' W 075°20'713.2
2017-Jul-10 20:01N 39°20' W 075°25'714.2
2017-Jul-10 19:31N 39°25' W 075°31'612.8
2017-Jul-10 19:01N 39°32' W 075°33'  

Dump ship's entire track history